Airfield :
LOGIN :

Register | Disclaimer

   EN    FR    IT 

 










Legend :    VFR   Marginal VFR   IFR   Intensive IFR   Very Intensive IFR
Visi :
Ceiling :
>= 8 km
>= 3000ft
5 to 8 km
1000 to 3000 ft
1500m to 5 km
500 to 1000 ft
800 to 1500m
200 to 500 ft
< 800m
< 200 ft
Symbols :   Thunderstorms  Fog  Heavy snow  Heavy precipitations  Wind > 20 kt
SIGMETs :     Misc.  Thunderstorms  Icing  Turbulence  Mountain Waves  Volcanic Ashes







- Airport Elevation : 844 ft
- IATA code : OSR


LKMT - Ostrava-Mosnov

CURRENT METAR :
  • 191030Z 24017KT CAVOK 09/02 Q1018 NOSIG

EXPIRED METARs :
  • 191000Z 24014KT CAVOK 08/01 Q1018 NOSIG
  • 190930Z 23016KT CAVOK 07/01 Q1018 NOSIG
  • 190900Z 23016KT CAVOK 07/01 Q1018 NOSIG
  • 190830Z 23014KT CAVOK 06/01 Q1018 NOSIG
  • 190800Z 24014KT CAVOK 05/01 Q1018 NOSIG

TAF TAF LKMT
Valid from the 19 at 06:00 until the 20 at 12:00 UTC


190500Z 1906/2012 21010KT CAVOK
TEMPO 1909/1918 23014G24KT
TEMPO 1920/2000 9999 BKN035
BECMG 2007/2009 25008KT BKN040
No reported NOTAMs for that airfield.



MET'MAP, your aeronautical weather chart ! - Copyright ORBIFLY December 2007 - Disclaimer

ORBIFLY MET'MAP TEAM :

Programming & Development : Alexandra Zaïnal
Concept & Development : Baudouin d'Aumeries
Co-Development & Prog : Marc-Olivier Méhu
Technical & hardware support : Manuel Goepfert

Contact : metmap@orbifly.com




SOURCES & CREDITS :

   NOAA